createdAt,value
2022-09-16T00:01:52.981Z,17.05
2022-09-16T00:04:20.622Z,16.83
2022-09-16T00:06:47.298Z,22.90
2022-09-16T00:09:13.970Z,21.58
2022-09-16T00:11:40.601Z,23.75
2022-09-16T00:14:07.494Z,19.60
2022-09-16T00:16:34.274Z,17.08
2022-09-16T00:19:02.013Z,14.82
2022-09-16T00:21:29.503Z,14.57
2022-09-16T00:23:56.826Z,14.90
2022-09-16T00:26:23.650Z,13.73
2022-09-16T00:28:50.885Z,14.27
2022-09-16T00:31:18.301Z,15.30
2022-09-16T00:33:45.172Z,15.18
2022-09-16T00:36:14.832Z,15.13
2022-09-16T00:38:42.121Z,13.95
2022-09-16T00:41:09.558Z,11.90
2022-09-16T00:43:49.845Z,12.05
2022-09-16T00:46:17.710Z,9.55
2022-09-16T00:48:44.774Z,8.98
2022-09-16T00:51:12.098Z,9.32
2022-09-16T00:53:43.171Z,9.65
2022-09-16T00:56:12.709Z,9.10
2022-09-16T00:58:39.360Z,8.82
2022-09-16T01:01:06.046Z,9.57
2022-09-16T01:03:36.972Z,9.18
2022-09-16T01:06:03.888Z,9.75
2022-09-16T01:08:30.970Z,9.98
2022-09-16T01:10:58.053Z,10.93
2022-09-16T01:13:24.992Z,11.77
2022-09-16T01:16:01.274Z,9.93
2022-09-16T01:18:52.311Z,9.50
2022-09-16T01:21:32.191Z,8.95
2022-09-16T01:24:24.093Z,9.45
2022-09-16T01:27:09.039Z,9.18
2022-09-16T01:30:10.840Z,9.20
2022-09-16T01:32:40.369Z,7.88
2022-09-16T01:35:20.285Z,8.43
2022-09-16T01:38:13.140Z,7.72
2022-09-16T01:40:47.540Z,6.40
2022-09-16T01:43:54.972Z,6.40
2022-09-16T01:46:33.861Z,7.13
2022-09-16T01:49:08.953Z,6.15
2022-09-16T01:51:47.791Z,6.35
2022-09-16T01:54:41.637Z,5.95
2022-09-16T01:57:16.729Z,6.63
2022-09-16T01:59:59.332Z,6.30
2022-09-16T02:02:32.490Z,9.23
2022-09-16T02:05:01.666Z,10.77
2022-09-16T02:07:32.718Z,13.52
2022-09-16T02:10:07.599Z,12.90
2022-09-16T02:12:37.632Z,12.98
2022-09-16T02:15:09.425Z,12.85
2022-09-16T02:17:39.358Z,13.07
2022-09-16T02:20:09.432Z,13.77
2022-09-16T02:22:45.293Z,13.07
2022-09-16T02:25:13.583Z,16.15
2022-09-16T02:27:41.580Z,14.25
2022-09-16T02:30:11.198Z,15.35
2022-09-16T02:32:42.289Z,15.38
2022-09-16T02:35:10.951Z,16.27
2022-09-16T02:37:50.914Z,15.20
2022-09-16T02:40:22.267Z,14.93
2022-09-16T02:42:49.726Z,14.63
2022-09-16T02:45:16.797Z,14.10
2022-09-16T02:48:19.694Z,14.60
2022-09-16T02:51:03.614Z,13.45
2022-09-16T02:53:38.238Z,14.82
2022-09-16T02:56:16.069Z,12.98
2022-09-16T02:58:42.798Z,14.75
2022-09-16T03:01:12.029Z,12.55
2022-09-16T03:03:38.827Z,16.70
2022-09-16T03:06:17.877Z,15.60
2022-09-16T03:08:44.948Z,13.38
2022-09-16T03:11:46.029Z,14.10
2022-09-16T03:14:21.688Z,13.38
2022-09-16T03:16:52.330Z,11.68
2022-09-16T03:19:30.872Z,12.57
2022-09-16T03:22:16.636Z,11.93
2022-09-16T03:25:15.326Z,11.55
2022-09-16T03:27:57.192Z,12.52
2022-09-16T03:30:23.871Z,9.13
2022-09-16T03:32:57.185Z,11.00
2022-09-16T03:35:26.699Z,11.48
2022-09-16T03:37:58.378Z,12.57
2022-09-16T03:40:26.853Z,11.70
2022-09-16T03:42:53.621Z,11.65
2022-09-16T03:45:21.854Z,10.73
2022-09-16T03:47:50.094Z,11.05
2022-09-16T03:50:18.026Z,9.98
2022-09-16T03:52:44.903Z,9.05
2022-09-16T03:55:11.639Z,8.70
2022-09-16T03:57:38.801Z,9.13
2022-09-16T04:00:07.701Z,8.95
2022-09-16T04:05:01.059Z,8.25
2022-09-16T04:07:27.734Z,7.40
2022-09-16T04:09:54.361Z,7.78
2022-09-16T04:12:20.988Z,7.47
2022-09-16T04:14:47.614Z,7.30
2022-09-16T04:17:14.263Z,7.88
2022-09-16T04:19:40.898Z,7.30
2022-09-16T04:22:07.549Z,8.20
2022-09-16T04:24:34.162Z,8.95
2022-09-16T04:27:00.825Z,7.82
2022-09-16T04:29:27.882Z,8.70
2022-09-16T04:31:55.276Z,10.05
2022-09-16T04:34:21.930Z,9.38
2022-09-16T04:36:48.699Z,8.93
2022-09-16T04:39:15.503Z,10.70
2022-09-16T04:41:42.249Z,9.70
2022-09-16T04:44:10.482Z,10.25
2022-09-16T04:46:37.237Z,12.90
2022-09-16T04:49:04.010Z,11.70
2022-09-16T04:51:32.305Z,11.55
2022-09-16T04:54:00.199Z,12.00
2022-09-16T04:56:29.287Z,14.05
2022-09-16T04:58:58.601Z,14.90
2022-09-16T05:01:28.034Z,15.13
2022-09-16T05:03:57.354Z,15.35
2022-09-16T05:06:26.390Z,17.08
2022-09-16T05:08:54.341Z,19.70
2022-09-16T05:11:26.559Z,16.58
2022-09-16T05:13:53.458Z,16.05
2022-09-16T05:16:22.054Z,17.48
2022-09-16T05:21:18.318Z,19.65
2022-09-16T05:23:47.088Z,13.73
2022-09-16T05:26:17.223Z,13.70
2022-09-16T05:28:44.112Z,15.20
2022-09-16T05:31:20.822Z,13.93
2022-09-16T05:33:54.904Z,15.07
2022-09-16T05:36:22.014Z,13.48
2022-09-16T05:39:11.172Z,17.70
2022-09-16T05:41:35.631Z,17.20
2022-09-16T05:44:02.726Z,13.20
2022-09-16T05:46:29.711Z,15.23
2022-09-16T05:48:56.712Z,13.18
2022-09-16T05:51:24.158Z,13.90
2022-09-16T05:53:51.246Z,15.05
2022-09-16T05:56:29.219Z,13.35
2022-09-16T05:58:58.054Z,13.25
2022-09-16T06:01:27.354Z,13.05
2022-09-16T06:03:57.309Z,13.93
2022-09-16T06:06:35.456Z,12.02
2022-09-16T06:09:07.615Z,11.48
2022-09-16T06:11:37.612Z,11.63
2022-09-16T06:14:06.096Z,9.32
2022-09-16T06:16:33.424Z,9.43
2022-09-16T06:19:02.085Z,9.43
2022-09-16T06:21:29.458Z,8.45
2022-09-16T06:23:57.013Z,7.80
2022-09-16T06:26:25.254Z,7.03
2022-09-16T06:28:52.932Z,7.03
2022-09-16T06:31:21.544Z,6.72
2022-09-16T06:33:50.396Z,7.15
2022-09-16T06:36:25.765Z,7.95
2022-09-16T06:38:52.452Z,9.25
2022-09-16T06:41:20.442Z,8.50
2022-09-16T06:43:48.068Z,8.75
2022-09-16T06:46:17.050Z,7.63
2022-09-16T06:48:45.392Z,7.57
2022-09-16T06:51:14.910Z,8.13
2022-09-16T06:53:41.817Z,7.35
2022-09-16T06:56:13.688Z,6.18
2022-09-16T06:58:42.272Z,5.35
2022-09-16T07:03:41.237Z,4.15
2022-09-16T07:06:08.571Z,4.40
2022-09-16T07:08:36.760Z,4.53
2022-09-16T07:11:07.702Z,4.10
2022-09-16T07:13:34.690Z,4.00
2022-09-16T07:16:12.960Z,4.05
2022-09-16T07:18:41.601Z,4.47
2022-09-16T07:21:14.062Z,4.07
2022-09-16T07:23:41.303Z,4.72
2022-09-16T07:26:14.389Z,4.03
2022-09-16T07:28:42.092Z,5.28
2022-09-16T07:31:11.049Z,3.33
2022-09-16T07:33:39.855Z,4.28
2022-09-16T07:36:11.101Z,4.72
2022-09-16T07:38:38.030Z,4.57
2022-09-16T07:41:06.770Z,4.28
2022-09-16T07:43:33.566Z,4.90
2022-09-16T07:46:00.780Z,5.30
2022-09-16T07:48:34.672Z,4.43
2022-09-16T07:51:04.841Z,4.50
2022-09-16T07:53:32.209Z,3.92
2022-09-16T07:56:06.349Z,4.05
2022-09-16T07:58:33.464Z,4.88
2022-09-16T08:01:04.146Z,4.50
2022-09-16T08:03:33.008Z,4.85
2022-09-16T08:06:01.507Z,6.18
2022-09-16T08:10:55.980Z,5.63
2022-09-16T08:13:23.172Z,4.45
2022-09-16T08:15:49.947Z,5.18
2022-09-16T08:18:17.202Z,4.35
2022-09-16T08:20:43.830Z,4.60
2022-09-16T08:23:10.564Z,3.85
2022-09-16T08:25:37.342Z,3.50
2022-09-16T08:28:04.581Z,3.97
2022-09-16T08:30:31.448Z,4.13
2022-09-16T08:32:59.047Z,4.63
2022-09-16T08:35:26.664Z,4.13
2022-09-16T08:37:53.681Z,4.70
2022-09-16T08:40:23.414Z,3.60
2022-09-16T08:42:53.118Z,3.50
2022-09-16T08:45:29.098Z,3.65
2022-09-16T08:48:08.143Z,4.03
2022-09-16T08:50:41.344Z,6.22
2022-09-16T08:53:15.016Z,4.60
2022-09-16T08:55:46.916Z,4.13
2022-09-16T08:58:17.437Z,4.22
2022-09-16T09:00:46.910Z,6.25
2022-09-16T09:03:37.022Z,4.50
2022-09-16T09:06:22.860Z,4.22
2022-09-16T09:09:14.013Z,4.78
2022-09-16T09:12:28.010Z,4.75
2022-09-16T09:15:03.808Z,4.10
2022-09-16T09:17:49.403Z,3.95
2022-09-16T09:20:55.366Z,3.97
2022-09-16T09:23:47.995Z,4.60
2022-09-16T09:26:58.477Z,5.22
2022-09-16T09:29:43.851Z,4.00
2022-09-16T09:32:49.355Z,4.03
2022-09-16T09:36:02.856Z,3.80
2022-09-16T09:38:32.555Z,3.97
2022-09-16T09:41:06.273Z,4.88
2022-09-16T09:43:45.396Z,4.15
2022-09-16T09:46:35.957Z,4.00
2022-09-16T09:49:27.150Z,3.75
2022-09-16T09:52:04.741Z,2.97
2022-09-16T09:54:35.027Z,3.95
2022-09-16T09:57:29.363Z,3.83
2022-09-16T10:00:08.043Z,4.63
2022-09-16T10:02:35.488Z,4.03
2022-09-16T10:05:02.357Z,3.75
2022-09-16T10:07:29.179Z,4.03
2022-09-16T10:10:01.894Z,3.50
2022-09-16T10:12:34.559Z,3.95
2022-09-16T10:15:02.088Z,3.42
2022-09-16T10:17:31.960Z,4.57
2022-09-16T10:20:04.078Z,5.10
2022-09-16T10:22:32.689Z,3.65
2022-09-16T10:25:18.801Z,3.08
2022-09-16T10:28:00.108Z,4.30
2022-09-16T10:30:32.923Z,3.85
2022-09-16T10:33:14.137Z,4.05
2022-09-16T10:35:43.593Z,3.30
2022-09-16T10:38:13.160Z,3.03
2022-09-16T10:40:52.440Z,3.25
2022-09-16T10:43:19.353Z,3.78
2022-09-16T10:45:49.154Z,3.55
2022-09-16T10:48:18.245Z,2.83
2022-09-16T10:50:57.942Z,3.40
2022-09-16T10:53:28.797Z,3.45
2022-09-16T10:56:06.475Z,3.05
2022-09-16T10:58:33.469Z,2.60
2022-09-16T11:01:37.471Z,4.07
2022-09-16T11:04:24.269Z,2.97
2022-09-16T11:07:10.905Z,2.95
2022-09-16T11:09:55.720Z,3.13
2022-09-16T11:13:10.533Z,3.30
2022-09-16T11:15:56.965Z,2.70
2022-09-16T11:18:50.832Z,3.13
2022-09-16T11:21:44.940Z,3.75
2022-09-16T11:24:31.146Z,3.47
2022-09-16T11:27:16.377Z,3.70
2022-09-16T11:29:49.178Z,3.50
2022-09-16T11:32:18.592Z,3.33
2022-09-16T11:35:10.411Z,4.43
2022-09-16T11:37:45.770Z,3.33
2022-09-16T11:40:28.485Z,3.67
2022-09-16T11:43:14.045Z,3.20
2022-09-16T11:45:56.402Z,3.22
2022-09-16T11:48:38.933Z,3.08
2022-09-16T11:51:24.235Z,2.75
2022-09-16T11:54:09.827Z,4.05
2022-09-16T11:57:05.666Z,3.53
2022-09-16T11:59:57.468Z,3.15
2022-09-16T12:02:37.797Z,2.85
2022-09-16T12:05:19.410Z,3.97
2022-09-16T12:08:42.898Z,3.45
2022-09-16T12:13:43.134Z,4.38
2022-09-16T12:16:13.912Z,4.35
2022-09-16T12:18:44.625Z,5.45
2022-09-16T12:21:22.767Z,4.15
2022-09-16T12:23:54.063Z,3.75
2022-09-16T12:26:38.732Z,4.00
2022-09-16T12:29:31.515Z,3.80
2022-09-16T12:32:00.628Z,3.05
2022-09-16T12:34:33.605Z,4.15
2022-09-16T12:37:31.280Z,5.30
2022-09-16T12:39:57.977Z,3.60
2022-09-16T12:42:30.729Z,3.28
2022-09-16T12:45:13.106Z,4.18
2022-09-16T12:48:01.568Z,3.50
2022-09-16T12:51:02.872Z,4.88
2022-09-16T12:53:41.327Z,3.40
2022-09-16T12:56:21.266Z,3.33
2022-09-16T12:58:57.959Z,3.67
2022-09-16T13:01:44.917Z,3.03
2022-09-16T13:04:17.222Z,3.13
2022-09-16T13:06:52.495Z,3.22
2022-09-16T13:09:27.577Z,3.22
2022-09-16T13:15:02.638Z,3.60
2022-09-16T13:20:02.666Z,2.75
2022-09-16T13:22:37.764Z,4.13
2022-09-16T13:25:38.222Z,3.15
2022-09-16T13:28:26.918Z,3.63
2022-09-16T13:30:53.897Z,3.15
2022-09-16T13:33:29.152Z,2.97
2022-09-16T13:36:19.654Z,2.70
2022-09-16T13:38:54.601Z,3.25
2022-09-16T13:41:40.323Z,3.17
2022-09-16T13:44:39.157Z,3.05
2022-09-16T13:47:11.499Z,2.70
2022-09-16T13:49:53.738Z,2.78
2022-09-16T13:52:32.213Z,3.08
2022-09-16T13:55:12.468Z,3.15
2022-09-16T13:57:49.307Z,3.92
2022-09-16T14:00:21.852Z,12.05
2022-09-16T14:03:04.060Z,3.67
2022-09-16T14:05:48.911Z,9.82
2022-09-16T14:08:37.089Z,3.50
2022-09-16T14:11:35.112Z,3.50
2022-09-16T14:14:29.806Z,3.35
2022-09-16T14:17:04.331Z,3.60
2022-09-16T14:19:40.396Z,3.83
2022-09-16T14:22:17.870Z,3.50
2022-09-16T14:24:45.996Z,3.13
2022-09-16T14:27:20.986Z,3.90
2022-09-16T14:29:55.802Z,3.55
2022-09-16T14:32:25.436Z,4.07
2022-09-16T14:34:53.184Z,3.45
2022-09-16T14:37:20.769Z,3.70
2022-09-16T14:39:51.919Z,3.88
2022-09-16T14:42:21.917Z,3.72
2022-09-16T14:44:52.911Z,3.40
2022-09-16T14:47:47.247Z,2.90
2022-09-16T14:50:33.833Z,3.90
2022-09-16T14:53:02.923Z,4.03
2022-09-16T14:55:34.798Z,3.50
2022-09-16T14:58:02.130Z,4.10
2022-09-16T15:00:37.247Z,4.22
2022-09-16T15:03:14.298Z,5.20
2022-09-16T15:05:42.909Z,3.20
2022-09-16T15:10:51.898Z,3.80
2022-09-16T15:13:21.872Z,4.63
2022-09-16T15:16:02.438Z,3.95
2022-09-16T15:18:38.036Z,3.75
2022-09-16T15:21:21.279Z,5.00
2022-09-16T15:23:53.499Z,4.03
2022-09-16T15:26:25.059Z,3.53
2022-09-16T15:28:59.393Z,3.95
2022-09-16T15:31:40.952Z,3.15
2022-09-16T15:34:22.619Z,3.40
2022-09-16T15:36:51.983Z,3.50
2022-09-16T15:39:31.587Z,3.72
2022-09-16T15:42:12.823Z,3.42
2022-09-16T15:44:54.072Z,3.53
2022-09-16T15:47:30.811Z,4.32
2022-09-16T15:50:05.303Z,3.90
2022-09-16T15:52:35.583Z,5.15
2022-09-16T15:55:04.371Z,4.68
2022-09-16T15:57:31.235Z,9.20
2022-09-16T16:00:16.347Z,9.15
2022-09-16T16:02:56.327Z,4.88
2022-09-16T16:05:26.341Z,4.95
2022-09-16T16:08:05.100Z,5.13
2022-09-16T16:10:36.422Z,4.57
2022-09-16T16:13:04.822Z,4.45
2022-09-16T16:15:35.083Z,5.78
2022-09-16T16:18:04.799Z,5.45
2022-09-16T16:20:34.165Z,5.93
2022-09-16T16:23:01.934Z,7.05
2022-09-16T16:25:29.561Z,4.32
2022-09-16T16:27:56.186Z,3.72
2022-09-16T16:30:22.957Z,4.38
2022-09-16T16:32:49.845Z,4.35
2022-09-16T16:35:16.606Z,6.63
2022-09-16T16:37:47.371Z,8.20
2022-09-16T16:40:15.424Z,6.65
2022-09-16T16:42:43.867Z,9.02
2022-09-16T16:45:14.166Z,6.03
2022-09-16T16:47:41.641Z,5.75
2022-09-16T16:50:08.873Z,4.57
2022-09-16T16:52:35.511Z,5.43
2022-09-16T16:55:02.231Z,5.35
2022-09-16T16:57:28.880Z,4.38
2022-09-16T16:59:55.653Z,5.35
2022-09-16T17:02:22.479Z,5.93
2022-09-16T17:04:49.336Z,6.00
2022-09-16T17:07:32.479Z,20.30
2022-09-16T17:10:17.830Z,17.45
2022-09-16T17:12:45.356Z,12.40
2022-09-16T17:15:12.291Z,8.20
2022-09-16T17:17:40.566Z,7.18
2022-09-16T17:20:07.665Z,9.90
2022-09-16T17:22:34.502Z,6.40
2022-09-16T17:25:01.199Z,8.52
2022-09-16T17:27:28.019Z,7.47
2022-09-16T17:29:54.715Z,8.38
2022-09-16T17:32:21.813Z,10.80
2022-09-16T17:34:48.547Z,10.07
2022-09-16T17:37:17.131Z,6.82
2022-09-16T17:39:43.759Z,7.97
2022-09-16T17:42:10.425Z,7.72
2022-09-16T17:44:37.142Z,7.63
2022-09-16T17:47:03.889Z,7.50
2022-09-16T17:49:31.112Z,7.10
2022-09-16T17:51:59.757Z,8.32
2022-09-16T17:54:26.453Z,6.93
2022-09-16T17:56:53.111Z,8.77
2022-09-16T17:59:19.851Z,7.57
2022-09-16T18:01:46.690Z,7.80
2022-09-16T18:04:13.661Z,7.07
2022-09-16T18:06:42.917Z,9.15
2022-09-16T18:09:10.100Z,8.80
2022-09-16T18:11:37.554Z,8.73
2022-09-16T18:14:05.789Z,7.65
2022-09-16T18:16:32.867Z,8.40
2022-09-16T18:19:00.869Z,8.15
2022-09-16T18:21:28.200Z,6.28
2022-09-16T18:23:57.048Z,7.35
2022-09-16T18:26:24.031Z,7.43
2022-09-16T18:29:09.514Z,6.68
2022-09-16T18:31:37.668Z,6.78
2022-09-16T18:34:04.980Z,5.90
2022-09-16T18:36:33.451Z,6.22
2022-09-16T18:39:00.222Z,10.35
2022-09-16T18:41:29.471Z,6.72
2022-09-16T18:44:01.300Z,6.75
2022-09-16T18:46:33.190Z,7.40
2022-09-16T18:49:00.744Z,7.72
2022-09-16T18:51:32.968Z,8.20
2022-09-16T18:54:02.335Z,8.25
2022-09-16T18:56:31.959Z,8.65
2022-09-16T18:59:23.388Z,8.05
2022-09-16T19:01:55.018Z,8.00
2022-09-16T19:04:24.192Z,8.02
2022-09-16T19:06:53.047Z,7.43
2022-09-16T19:14:14.313Z,7.70
2022-09-16T19:16:43.028Z,7.03
2022-09-16T19:19:11.593Z,7.45
2022-09-16T19:21:38.601Z,7.93
2022-09-16T19:24:07.627Z,7.72
2022-09-16T19:26:35.713Z,16.63
2022-09-16T19:29:03.665Z,11.02
2022-09-16T19:31:31.501Z,8.63
2022-09-16T19:33:59.322Z,9.25
2022-09-16T19:36:28.297Z,7.32
2022-09-16T19:38:55.928Z,8.15
2022-09-16T19:41:25.302Z,8.98
2022-09-16T19:43:56.114Z,8.18
2022-09-16T19:46:22.864Z,9.65
2022-09-16T19:48:50.298Z,8.02
2022-09-16T19:51:18.771Z,8.65
2022-09-16T19:53:46.887Z,8.98
2022-09-16T19:56:17.066Z,8.27
2022-09-16T19:58:44.063Z,8.40
2022-09-16T20:01:13.331Z,7.28
2022-09-16T20:03:43.527Z,6.70
2022-09-16T20:06:21.725Z,6.80
2022-09-16T20:08:52.008Z,7.05
2022-09-16T20:11:22.087Z,8.20
2022-09-16T20:13:49.808Z,9.25
2022-09-16T20:16:17.834Z,8.23
2022-09-16T20:18:44.927Z,7.63
2022-09-16T20:21:14.503Z,8.52
2022-09-16T20:23:41.782Z,7.50
2022-09-16T20:26:09.749Z,8.05
2022-09-16T20:28:38.829Z,8.45
2022-09-16T20:31:05.946Z,8.07
2022-09-16T20:33:33.499Z,8.05
2022-09-16T20:36:04.220Z,7.25
2022-09-16T20:38:31.258Z,8.88
2022-09-16T20:40:58.167Z,6.90
2022-09-16T20:43:24.805Z,7.68
2022-09-16T20:45:51.487Z,7.72
2022-09-16T20:48:18.148Z,7.13
2022-09-16T20:50:44.759Z,7.22
2022-09-16T20:53:11.915Z,6.93
2022-09-16T20:55:38.533Z,6.75
2022-09-16T20:58:05.205Z,8.35
2022-09-16T21:00:32.925Z,6.80
2022-09-16T21:03:00.903Z,7.65
2022-09-16T21:05:27.565Z,6.65
2022-09-16T21:07:57.815Z,6.22
2022-09-16T21:10:24.706Z,6.47
2022-09-16T21:12:51.389Z,6.70
2022-09-16T21:15:18.083Z,6.25
2022-09-16T21:17:44.718Z,5.82
2022-09-16T21:20:11.372Z,6.03
2022-09-16T21:22:38.917Z,6.78
2022-09-16T21:25:06.116Z,6.20
2022-09-16T21:27:33.173Z,5.95
2022-09-16T21:29:59.850Z,5.38
2022-09-16T21:32:26.493Z,5.70
2022-09-16T21:34:53.145Z,5.95
2022-09-16T21:37:19.771Z,6.10
2022-09-16T21:39:46.420Z,8.13
2022-09-16T21:42:13.069Z,8.57
2022-09-16T21:44:39.725Z,5.50
2022-09-16T21:47:10.486Z,6.28
2022-09-16T21:49:37.418Z,6.10
2022-09-16T21:52:04.212Z,6.15
2022-09-16T21:54:31.238Z,5.43
2022-09-16T21:56:57.887Z,6.03
2022-09-16T21:59:24.797Z,7.30
2022-09-16T22:01:51.931Z,7.43
2022-09-16T22:04:23.373Z,6.60
2022-09-16T22:06:51.191Z,5.68
2022-09-16T22:09:18.068Z,6.93
2022-09-16T22:11:44.755Z,6.22
2022-09-16T22:14:12.438Z,6.45
2022-09-16T22:16:40.191Z,6.78
2022-09-16T22:19:09.614Z,6.30
2022-09-16T22:21:38.349Z,7.25
2022-09-16T22:24:05.529Z,6.45
2022-09-16T22:26:32.395Z,6.47
2022-09-16T22:28:59.325Z,7.20
2022-09-16T22:31:31.324Z,7.07
2022-09-16T22:34:00.941Z,6.57
2022-09-16T22:36:29.726Z,7.38
2022-09-16T22:39:02.033Z,7.32
2022-09-16T22:41:29.350Z,7.75
2022-09-16T22:43:56.192Z,8.20
2022-09-16T22:46:28.179Z,7.80
2022-09-16T22:48:55.904Z,7.68
2022-09-16T22:51:22.670Z,9.02
2022-09-16T22:53:49.814Z,8.75
2022-09-16T22:56:18.850Z,9.27
2022-09-16T22:58:46.029Z,10.13
2022-09-16T23:01:17.877Z,10.05
2022-09-16T23:03:45.649Z,9.20
2022-09-16T23:06:14.654Z,10.43
2022-09-16T23:08:45.374Z,9.05
2022-09-16T23:11:14.693Z,10.90
2022-09-16T23:13:42.477Z,12.25
2022-09-16T23:16:28.457Z,12.45
2022-09-16T23:18:56.504Z,13.23
2022-09-16T23:21:23.942Z,15.30
2022-09-16T23:23:53.162Z,15.45
2022-09-16T23:26:22.320Z,17.33
2022-09-16T23:28:53.746Z,16.10
2022-09-16T23:31:22.645Z,17.45
2022-09-16T23:33:49.552Z,16.27
2022-09-16T23:36:17.705Z,16.10
2022-09-16T23:38:45.982Z,17.45
2022-09-16T23:41:19.817Z,16.48
2022-09-16T23:43:47.940Z,15.77
2022-09-16T23:46:16.895Z,16.60
2022-09-16T23:48:44.287Z,14.30
2022-09-16T23:51:12.237Z,14.73
2022-09-16T23:53:39.306Z,13.43
2022-09-16T23:56:10.208Z,11.40
2022-09-16T23:58:37.078Z,9.82
